Timeline UpdatesTrip UpdatesNews PostsPvt PostsTravel TipsAdmin PostsConv PostsFollowed PostsChat RequestsBlog PostsPNR Posts

Disclaimer
Search
 
 
Mon Sep 1, 2014 19:13:03 ISTHomeTrainsΣChainsAtlasPNRForumGalleryNewsFAQTripsMembersLoginFeedback
No Recent News for this Train
Other Trains in the News **new
Latest...
Train leaving Amritsar from 27/8/14-29/8/14 will be diverted to run via Siwan-Thawe-Kaptanganj-Gorakhpur #1198258
Tue Aug 26, 2014 (10:21PM)
⇐ Return Journey: Train# 15707

15708/Amrapali Express

OLD Time-Table. New TT will soon be available.
Feb 22 2014 (1:17PM)
Change Departure Station:
Change Arrival Station:
Post a Train Travel TipPost a Train Travel Tip **new
Post a Comment/Question/Picture/VideoPost a Comment/Question/Picture/Video
Pantry/Catering
✕ NO Pantry Car
✓ Catering Avbl
RSA - Rake Sharing
This train has 5 rakes in all, and has on-board cleaning system available. ; Charging points available in AC-2 tier, one in each coupe.
Rake/Coach Composition
LOCO«SLR-GN-GN-GN-GN-Gn-S9-S8-S7-S6-S5-S4-S3-S2-S1-B1-A1-GN-GN-GN-GN-SLR=22 Coach Train. S9 becomes S1 in UP train.
Loco
ASR-LKO> CNB WAP4 LKO-KIR> SGUJ WDP4
News    PNR    Forum    Time-Table    Availability    Fare Chart    Map    Arr/Dep History    Trips    Gallery    ΣChains    X/O    Timeline    
Travel Time: 24h 55m    25 halts    Distance: 1269 km    Avg Speed: 50 km/hr
Type: Mail/Express
Zone: NFR/Northeast Frontier
Departs @ 12:00 (Avg 6m late)
Platform# 6
SMTWTFS
Ambala Cantt. Junction/UMB 
Arrives @ 12:55 +1 night (Avg 3h 16m late)
Platform# 3
SMTWTFS
Muzaffarpur Junction/MFP 

25 halts. 203 intermediate Stations between Ambala Cantt. Junction and Muzaffarpur Junction

Show ALL intermediate Stations  Show Old Time-Table

#CodeStation NameX/OArrivesAvgDepartsAvgHaltPFDay#KmSpeedElevZoneAddress
1ASRAmritsar Junction (5)  -07:15+331-249.682233mNRAmritsar 143002, Punjab
2JNLJandiala (2)X  07:29+1207:31+122m21-230.484238mNRJandiala, Punjab
3BEASBeas Junction (2)  07:48+1507:50+152m21-206.561238mNRBeas, Punjab
4KREKartarpur (2)X  08:11+1208:13+122m11-185.152236mNRKartarpur, Punjab
5JUCJalandhar City Junction (5)X  08:30+908:35+115m21-170.426239mNRJalandhar 144001, Punjab
6JRCJalandhar Cantt. Junction (3)X  08:46+808:48+92m21-165.665239mNRNear Rama Mandi, Punjab
7PGWPhagwara Junction (3)X  09:03+809:05+82m11-149.359245mNRPhagwara, Punjab
8GRYGoraya (2)X  09:15+909:17+92m11-139.469240mNRGoraya, Punjab
9PHRPhillaur Junction (3)  09:28+909:30+92m11-126.752246mNRPhillaur, Punjab
10LDHLudhiana Junction (7)X  09:45+1009:55+1610m11-113.657246mNRLudhiana 141001, Punjab
11KNNKhanna (3)X  10:40+510:42+72m21-70.867269mNRNH 1, Punjab
12SIRSirhind Junction (3)  10:58+511:00+52m21-52.983271mNRSirhind, Punjab
13RPJRajpura Junction (3)11:18+611:20+62m21-28.148272mNRNH-1, Punjab
14UMB»Ambala Cantt. Junction (7)»  11:55+412:00+65m610.081278mNRAmbala 133001, Haryana
15KUNKarnal (3)X  12:56+1612:58+162m1175.274253mNRKarnal, Haryana
16PNPPanipat Junction (5)X  13:26+1213:28+122m11109.685235mNRPanipat, Haryana
17SNPSonipat (3)X  14:00+1314:02+132m11154.769225mNRSonipat, Haryana
18SZMDelhi Sabzi Mandi (2)  14:37+1914:39+202m--1195.17220mNRGulabi Bagh, Delhi NCT
19DLIOld Delhi Junction (16)XO  15:05+1315:20+1515m111198.158219mNRNear Chandni Chowk Metro Station, Delhi NCT
20KRJKhurja Junction (4)X16:45+5416:47+572m--1280.8109199mNCRBulandshahr, Uttar Pradesh
21ALJNAligarh Junction (4)XO  17:11+1:2817:16+1:285m21324.339192mNCRAligarh, Uttar Pradesh
22HRSHathras Junction (3)X  18:02+1:3518:04+1:352m21354.561183mNCRMahamaya Nagar(05722-242803), Uttar Pradesh
23TDLTundla Junction (5)XO  18:51+1:5818:56+2:045m--1402.541167mNCRDistt.Firozabad, Uttar Pradesh
24FZDFirozabad (4)X  19:20+2:0319:22+2:122m21419.055164mNCRFirozabad, Uttar Pradesh
25ETWEtawah (5)O  20:44+1:5020:46+1:542m31494.370154mNCRDistt. Etawah, Uttar Pradesh
26CNBKanpur Central (10)X  22:45+1:4723:00+1:4615m--1633.650128mNCRKANPUR-208 001, Uttar Pradesh
27ONUnnao Junction (5)X  23:21+1:5923:23+2:002m--1651.053129mNRUnnao, Uttar Pradesh
28LKOLucknow Charbagh (9)X  00:25+1:5900:50+1:5825m12705.638123mNR226004, Uttar Pradesh
29BBKBarabanki Junction (4)  01:35+1:5701:37+1:572m--2734.269122mNRPin-225001, Uttar Pradesh
30GDGonda Junction (3)X  02:55+2:1703:00+2:185m22823.580110mNERGonda 271001, Uttar Pradesh
31MURMankapur Junction (5)X03:21+2:2003:23+2:202m--2851.486104mNERDistrict Gonda, Uttar Pradesh
32BSTBasti (4)  04:05+2:2204:10+2:225m--2911.98490mNERBasti 272001, Uttar Pradesh
33KLDKhalilabad (3)X  04:31+2:2704:33+2:282m--2941.42886mNERKhalilabad- 272175, Uttar Pradesh
34GKPGorakhpur Junction (10)  05:45+1:5906:00+1:5915m72975.46484mNERGorakhpur 273001, Uttar Pradesh
35DEOSDeoria Sadar (3)X  06:46+2:3006:48+2:372m221024.55179mNERDeoria- 274001, Uttar Pradesh
36SVSiwan Junction (4)  08:10+2:5308:15+2:555m121094.04170mNERSiwan, Bihar
37CPRChhapra Junction (6)X  09:45+2:2010:05+2:2820m--21155.26458mNERDistt: Saran, Bihar
38SEESonpur Junction (4)X  10:56+3:0411:03+3:227m--21209.22556mECRSaran, Bihar
39HJPHajipur Junction (3)X  11:16+3:2111:18+3:362m--21214.73355mECR06224-272230, Bihar
40MFP•Muzaffarpur Junction (6)•X  12:55+3:1613:05+3:1610m321268.67257mECRMuzaffarpur, Bihar
41DOLDholi (2)  13:26+3:4613:28+3:472m--21293.767 ECRDistt. Muzaffarpur, Bihar
42KRBPKhudiram B Pusa (2)  13:40+3:4313:42+3:452m--21307.13652mECRDistt. Samastipur, Bihar
43SPJSamastipur Junction (9)  14:05+3:4914:13+3:498m--21320.74255mECRSamastipur, Bihar
44BJUBarauni Junction (9)  15:25+3:1815:35+3:2010m521371.24049mECRBegusarai, Bihar
45BGSBegusarai (3)  15:55+3:5815:57+3:582m221384.74446mECRBegusarai, Bihar
46KGGKhagaria Junction (3)  16:51+3:2116:53+3:232m221424.64843mECRKhagaria, Bihar
47MNEMansi Junction (4)X  17:04+3:4317:06+3:442m--21433.44143mECRMansi, Bihar
48THBThana Bihpur Junction (3)X  18:08+3:3918:10+3:392m--21475.44839mECRThana Bihpur, Bihar
49NNANaugachia (3)X  18:30+3:2418:32+3:242m121491.34637mECRBhagalpur, Bihar
50KUEKursela  18:56+3:4218:58+3:432m--21509.83431mECRNH 31, Bihar
51CRRKaragola RoadX  19:28+3:3619:30+3:372m--21526.83336mECRLachhmipur, Bihar
52KIRKatihar Junction (7)  20:10+3:25-121549.1-35mNFRKatihar 854105, Bihar
Scroll to Top
Scroll to Bottom